createdAt,value
2022-12-16T00:01:26.902Z,1.80
2022-12-16T00:03:55.531Z,2.55
2022-12-16T00:06:24.068Z,1.77
2022-12-16T00:08:51.998Z,1.83
2022-12-16T00:11:20.150Z,2.40
2022-12-16T00:13:47.561Z,1.50
2022-12-16T00:16:16.786Z,1.90
2022-12-16T00:18:43.555Z,1.65
2022-12-16T00:21:11.027Z,1.90
2022-12-16T00:23:39.681Z,2.78
2022-12-16T00:26:06.843Z,1.85
2022-12-16T00:28:34.234Z,1.80
2022-12-16T00:31:00.937Z,1.80
2022-12-16T00:33:29.060Z,1.80
2022-12-16T00:35:56.550Z,2.58
2022-12-16T00:38:25.992Z,2.60
2022-12-16T00:40:52.910Z,1.90
2022-12-16T00:43:20.475Z,1.73
2022-12-16T00:45:47.990Z,1.63
2022-12-16T00:48:15.232Z,2.17
2022-12-16T00:50:43.829Z,1.60
2022-12-16T00:53:10.456Z,1.58
2022-12-16T00:55:37.224Z,1.83
2022-12-16T00:58:04.058Z,1.42
2022-12-16T01:00:30.678Z,1.67
2022-12-16T01:02:57.517Z,1.73
2022-12-16T01:05:27.547Z,1.60
2022-12-16T01:07:55.892Z,1.92
2022-12-16T01:10:25.003Z,1.80
2022-12-16T01:12:52.184Z,1.88
2022-12-16T01:15:19.619Z,1.63
2022-12-16T01:17:46.869Z,1.50
2022-12-16T01:20:14.463Z,1.58
2022-12-16T01:22:41.630Z,2.05
2022-12-16T01:25:09.879Z,1.92
2022-12-16T01:27:36.540Z,1.40
2022-12-16T01:30:03.608Z,1.73
2022-12-16T01:32:30.417Z,1.63
2022-12-16T01:34:57.479Z,1.40
2022-12-16T01:37:24.601Z,1.83
2022-12-16T01:39:52.361Z,1.70
2022-12-16T01:42:21.738Z,1.38
2022-12-16T01:44:52.199Z,1.98
2022-12-16T01:47:28.600Z,2.10
2022-12-16T01:49:55.160Z,2.00
2022-12-16T01:52:33.056Z,1.60
2022-12-16T01:55:18.485Z,1.67
2022-12-16T01:57:50.429Z,1.48
2022-12-16T02:00:17.601Z,1.55
2022-12-16T02:02:45.579Z,1.60
2022-12-16T02:05:22.376Z,1.55
2022-12-16T02:08:16.464Z,1.98
2022-12-16T02:10:43.272Z,1.63
2022-12-16T02:13:22.713Z,1.98
2022-12-16T02:15:57.169Z,1.85
2022-12-16T02:18:48.678Z,1.70
2022-12-16T02:21:52.540Z,1.58
2022-12-16T02:24:50.270Z,1.77
2022-12-16T02:27:55.000Z,1.65
2022-12-16T02:30:47.097Z,1.98
2022-12-16T02:33:26.531Z,2.60
2022-12-16T02:36:05.148Z,1.65
2022-12-16T02:38:57.501Z,1.92
2022-12-16T02:41:27.810Z,1.50
2022-12-16T02:44:07.501Z,1.40
2022-12-16T02:46:57.164Z,1.38
2022-12-16T02:49:23.825Z,1.60
2022-12-16T02:51:50.480Z,1.70
2022-12-16T02:54:17.837Z,1.95
2022-12-16T02:57:08.962Z,1.90
2022-12-16T02:59:56.132Z,1.40
2022-12-16T03:02:28.786Z,1.95
2022-12-16T03:05:06.266Z,1.70
2022-12-16T03:07:36.991Z,1.40
2022-12-16T03:10:08.668Z,1.80
2022-12-16T03:12:38.376Z,1.38
2022-12-16T03:15:05.830Z,1.63
2022-12-16T03:17:32.880Z,1.30
2022-12-16T03:20:24.824Z,1.80
2022-12-16T03:22:54.340Z,1.42
2022-12-16T03:25:22.672Z,1.52
2022-12-16T03:28:12.141Z,1.38
2022-12-16T03:30:46.019Z,1.60
2022-12-16T03:33:30.179Z,1.27
2022-12-16T03:36:07.290Z,1.33
2022-12-16T03:38:36.072Z,1.63
2022-12-16T03:41:05.423Z,1.30
2022-12-16T03:43:32.503Z,1.83
2022-12-16T03:46:04.396Z,1.92
2022-12-16T03:48:31.171Z,1.40
2022-12-16T03:50:57.877Z,1.40
2022-12-16T03:53:27.024Z,1.40
2022-12-16T03:55:54.828Z,1.40
2022-12-16T03:58:22.031Z,1.52
2022-12-16T04:00:48.801Z,2.00
2022-12-16T04:03:15.529Z,1.73
2022-12-16T04:05:42.381Z,1.70
2022-12-16T04:08:09.034Z,1.50
2022-12-16T04:10:54.358Z,1.58
2022-12-16T04:13:40.373Z,1.50
2022-12-16T04:16:32.373Z,1.90
2022-12-16T04:19:17.484Z,1.77
2022-12-16T04:22:02.482Z,1.50
2022-12-16T04:24:30.893Z,1.63
2022-12-16T04:27:16.218Z,1.25
2022-12-16T04:30:02.756Z,1.73
2022-12-16T04:32:53.653Z,1.80
2022-12-16T04:35:38.831Z,1.50
2022-12-16T04:38:23.953Z,1.60
2022-12-16T04:41:09.278Z,1.67
2022-12-16T04:43:54.724Z,1.50
2022-12-16T04:46:40.325Z,1.40
2022-12-16T04:49:26.045Z,1.75
2022-12-16T04:52:11.817Z,1.55
2022-12-16T04:54:57.147Z,1.67
2022-12-16T04:57:42.359Z,1.40
2022-12-16T05:00:28.808Z,1.70
2022-12-16T05:03:15.890Z,1.30
2022-12-16T05:06:01.574Z,1.30
2022-12-16T05:08:47.141Z,1.58
2022-12-16T05:11:32.469Z,2.00
2022-12-16T05:14:17.768Z,1.30
2022-12-16T05:17:03.104Z,1.38
2022-12-16T05:19:48.206Z,1.40
2022-12-16T05:22:33.769Z,1.40
2022-12-16T05:25:18.952Z,1.60
2022-12-16T05:28:09.080Z,1.63
2022-12-16T05:30:54.557Z,2.20
2022-12-16T05:33:41.358Z,2.00
2022-12-16T05:36:26.648Z,2.05
2022-12-16T05:39:12.421Z,1.50
2022-12-16T05:41:58.309Z,1.95
2022-12-16T05:44:43.471Z,1.73
2022-12-16T05:47:29.306Z,1.70
2022-12-16T05:50:14.728Z,1.60
2022-12-16T05:53:00.184Z,1.63
2022-12-16T05:55:45.539Z,1.70
2022-12-16T05:58:30.762Z,1.60
2022-12-16T06:01:16.009Z,1.42
2022-12-16T06:04:01.283Z,1.52
2022-12-16T06:06:46.627Z,1.55
2022-12-16T06:09:31.828Z,1.33
2022-12-16T06:12:17.184Z,1.60
2022-12-16T06:15:02.471Z,1.83
2022-12-16T06:17:47.765Z,1.42
2022-12-16T06:20:33.055Z,1.52
2022-12-16T06:23:22.533Z,1.50
2022-12-16T06:26:10.662Z,1.40
2022-12-16T06:28:55.739Z,2.60
2022-12-16T06:31:40.997Z,1.30
2022-12-16T06:34:26.199Z,1.90
2022-12-16T06:37:11.436Z,1.73
2022-12-16T06:39:56.544Z,1.98
2022-12-16T06:42:42.042Z,1.67
2022-12-16T06:45:32.875Z,2.00
2022-12-16T06:48:20.161Z,1.93
2022-12-16T06:51:05.364Z,1.90
2022-12-16T06:53:50.640Z,1.35
2022-12-16T06:56:36.339Z,1.90
2022-12-16T06:59:21.755Z,1.73
2022-12-16T07:02:07.148Z,1.58
2022-12-16T07:04:53.265Z,1.60
2022-12-16T07:07:39.123Z,1.67
2022-12-16T07:10:25.178Z,1.40
2022-12-16T07:13:10.440Z,2.05
2022-12-16T07:15:55.627Z,1.70
2022-12-16T07:18:40.763Z,1.65
2022-12-16T07:21:43.067Z,2.15
2022-12-16T07:24:31.595Z,3.33
2022-12-16T07:27:17.170Z,4.78
2022-12-16T07:30:02.150Z,5.55
2022-12-16T07:32:47.315Z,4.75
2022-12-16T07:35:32.500Z,3.58
2022-12-16T07:38:17.776Z,4.05
2022-12-16T07:41:06.115Z,4.15
2022-12-16T07:43:51.414Z,3.63
2022-12-16T07:46:36.846Z,4.30
2022-12-16T07:49:22.142Z,3.65
2022-12-16T07:52:07.189Z,3.00
2022-12-16T07:54:52.476Z,4.13
2022-12-16T07:57:38.273Z,3.85
2022-12-16T08:00:23.825Z,3.85
2022-12-16T08:03:14.052Z,13.07
2022-12-16T08:05:59.566Z,5.70
2022-12-16T08:08:44.971Z,30.13
2022-12-16T08:11:30.305Z,3.60
2022-12-16T08:14:15.382Z,2.53
2022-12-16T08:17:00.824Z,2.65
2022-12-16T08:19:46.283Z,2.00
2022-12-16T08:22:31.471Z,1.77
2022-12-16T08:25:16.911Z,2.00
2022-12-16T08:28:02.868Z,2.58
2022-12-16T08:30:48.280Z,2.15
2022-12-16T08:33:41.042Z,2.08
2022-12-16T08:36:26.386Z,1.85
2022-12-16T08:39:11.774Z,1.90
2022-12-16T08:41:57.141Z,1.60
2022-12-16T08:44:42.380Z,1.83
2022-12-16T08:47:28.238Z,1.67
2022-12-16T08:50:13.382Z,2.25
2022-12-16T08:52:58.601Z,2.85
2022-12-16T08:55:43.804Z,2.03
2022-12-16T08:58:28.982Z,3.17
2022-12-16T09:01:14.404Z,4.10
2022-12-16T09:03:59.923Z,5.70
2022-12-16T09:06:45.500Z,4.65
2022-12-16T09:09:30.730Z,3.95
2022-12-16T09:12:16.007Z,4.05
2022-12-16T09:15:01.335Z,3.90
2022-12-16T09:17:47.021Z,3.15
2022-12-16T09:20:32.296Z,3.78
2022-12-16T09:23:21.543Z,3.10
2022-12-16T09:26:06.744Z,3.78
2022-12-16T09:28:52.197Z,4.30
2022-12-16T09:31:37.827Z,2.80
2022-12-16T09:34:23.345Z,3.75
2022-12-16T09:37:08.601Z,3.63
2022-12-16T09:39:54.407Z,3.20
2022-12-16T09:43:08.914Z,2.60
2022-12-16T09:46:09.741Z,2.90
2022-12-16T09:49:04.094Z,2.13
2022-12-16T09:51:50.689Z,2.72
2022-12-16T09:54:42.485Z,3.25
2022-12-16T09:57:28.563Z,2.85
2022-12-16T10:00:21.922Z,3.78
2022-12-16T10:03:09.590Z,2.80
2022-12-16T10:06:12.106Z,2.38
2022-12-16T10:09:07.097Z,2.60
2022-12-16T10:12:24.782Z,3.78
2022-12-16T10:15:38.325Z,3.72
2022-12-16T10:18:47.631Z,3.20
2022-12-16T10:21:42.318Z,2.65
2022-12-16T10:24:34.970Z,3.67
2022-12-16T10:27:33.357Z,3.17
2022-12-16T10:30:20.759Z,3.63
2022-12-16T10:33:08.958Z,3.42
2022-12-16T10:36:03.024Z,4.18
2022-12-16T10:38:58.374Z,3.83
2022-12-16T10:41:48.185Z,2.83
2022-12-16T10:44:44.983Z,3.72
2022-12-16T10:47:30.643Z,3.13
2022-12-16T10:50:17.029Z,3.15
2022-12-16T10:53:23.889Z,4.10
2022-12-16T10:56:36.792Z,3.90
2022-12-16T10:59:25.026Z,3.33
2022-12-16T11:02:38.025Z,3.65
2022-12-16T11:05:42.205Z,4.27
2022-12-16T11:08:45.294Z,3.85
2022-12-16T11:11:47.768Z,2.90
2022-12-16T11:14:50.326Z,3.67
2022-12-16T11:17:47.009Z,3.97
2022-12-16T11:20:32.257Z,4.15
2022-12-16T11:23:43.748Z,5.43
2022-12-16T11:26:36.799Z,4.05
2022-12-16T11:29:33.536Z,3.33
2022-12-16T11:32:48.192Z,3.72
2022-12-16T11:35:37.140Z,4.07
2022-12-16T11:38:27.808Z,3.80
2022-12-16T11:41:14.983Z,3.58
2022-12-16T11:44:23.925Z,3.90
2022-12-16T11:47:09.313Z,3.35
2022-12-16T11:49:54.962Z,4.63
2022-12-16T11:52:41.866Z,4.78
2022-12-16T11:56:05.374Z,4.53
2022-12-16T11:58:51.615Z,4.05
2022-12-16T12:01:46.227Z,3.60
2022-12-16T12:07:26.541Z,2.92
2022-12-16T12:10:47.115Z,3.58
2022-12-16T12:13:57.500Z,2.83
2022-12-16T12:16:57.941Z,3.50
2022-12-16T12:19:58.519Z,3.22
2022-12-16T12:22:58.129Z,4.03
2022-12-16T12:26:11.261Z,3.00
2022-12-16T12:29:02.402Z,3.50
2022-12-16T12:32:14.455Z,3.72
2022-12-16T12:35:03.257Z,3.45
2022-12-16T12:38:05.835Z,3.00
2022-12-16T12:41:09.002Z,3.60
2022-12-16T12:44:01.072Z,3.10
2022-12-16T12:47:00.631Z,2.72
2022-12-16T12:50:07.238Z,2.53
2022-12-16T12:53:14.404Z,2.70
2022-12-16T12:56:28.056Z,2.67
2022-12-16T12:59:18.987Z,3.17
2022-12-16T13:02:05.958Z,4.03
2022-12-16T13:04:53.021Z,3.58
2022-12-16T13:07:38.972Z,3.30
2022-12-16T13:10:39.583Z,3.22
2022-12-16T13:13:34.285Z,2.20
2022-12-16T13:16:22.873Z,2.63
2022-12-16T13:19:55.127Z,2.20
2022-12-16T13:23:00.403Z,4.18
2022-12-16T13:26:01.701Z,4.82
2022-12-16T13:28:53.020Z,6.72
2022-12-16T13:31:39.876Z,5.22
2022-12-16T13:34:33.636Z,4.03
2022-12-16T13:37:28.216Z,4.15
2022-12-16T13:40:38.490Z,5.40
2022-12-16T13:43:25.725Z,5.38
2022-12-16T13:46:20.413Z,4.60
2022-12-16T13:49:12.065Z,3.67
2022-12-16T13:55:05.460Z,2.45
2022-12-16T13:57:56.455Z,2.47
2022-12-16T14:00:44.085Z,3.45
2022-12-16T14:03:54.331Z,4.22
2022-12-16T14:06:44.424Z,4.05
2022-12-16T14:09:51.428Z,3.17
2022-12-16T14:13:09.243Z,5.32
2022-12-16T14:16:06.813Z,7.07
2022-12-16T14:19:21.652Z,4.93
2022-12-16T14:22:17.594Z,3.40
2022-12-16T14:25:03.299Z,3.42
2022-12-16T14:27:53.169Z,3.38
2022-12-16T14:30:44.085Z,3.88
2022-12-16T14:33:36.185Z,3.22
2022-12-16T14:36:21.582Z,3.90
2022-12-16T14:39:08.293Z,2.80
2022-12-16T14:41:53.624Z,4.35
2022-12-16T14:44:44.237Z,2.72
2022-12-16T14:47:40.197Z,4.43
2022-12-16T14:50:38.462Z,3.05
2022-12-16T14:53:36.015Z,4.97
2022-12-16T14:56:36.157Z,5.95
2022-12-16T14:59:26.759Z,3.00
2022-12-16T15:02:15.914Z,4.35
2022-12-16T15:05:02.218Z,3.60
2022-12-16T15:11:01.941Z,4.07
2022-12-16T15:13:47.640Z,4.70
2022-12-16T15:16:43.160Z,6.55
2022-12-16T15:19:15.716Z,3.42
2022-12-16T15:19:33.610Z,5.13
2022-12-16T15:22:20.147Z,4.88
2022-12-16T15:25:06.522Z,4.85
2022-12-16T15:27:56.073Z,4.45
2022-12-16T15:30:56.666Z,5.72
2022-12-16T15:33:45.278Z,5.03
2022-12-16T15:36:46.882Z,4.93
2022-12-16T15:39:52.549Z,5.07
2022-12-16T15:42:44.681Z,5.63
2022-12-16T15:45:45.557Z,5.35
2022-12-16T15:48:45.208Z,5.00
2022-12-16T15:51:40.322Z,3.45
2022-12-16T15:54:35.176Z,3.97
2022-12-16T15:57:21.294Z,4.88
2022-12-16T16:00:19.086Z,5.65
2022-12-16T16:03:08.106Z,4.32
2022-12-16T16:05:55.064Z,4.43
2022-12-16T16:08:40.218Z,4.65
2022-12-16T16:11:27.114Z,5.88
2022-12-16T16:14:14.313Z,6.00
2022-12-16T16:16:59.800Z,6.38
2022-12-16T16:19:46.178Z,6.35
2022-12-16T16:22:33.938Z,5.75
2022-12-16T16:25:19.088Z,5.63
2022-12-16T16:28:04.966Z,6.20
2022-12-16T16:30:50.312Z,5.95
2022-12-16T16:33:35.870Z,8.27
2022-12-16T16:36:32.883Z,8.93
2022-12-16T16:39:18.130Z,13.65
2022-12-16T16:42:03.569Z,12.80
2022-12-16T16:44:48.859Z,10.80
2022-12-16T16:47:36.300Z,13.85
2022-12-16T16:50:21.540Z,15.35
2022-12-16T16:53:07.004Z,11.43
2022-12-16T16:55:52.342Z,14.90
2022-12-16T16:58:46.492Z,13.50
2022-12-16T17:01:34.055Z,16.58
2022-12-16T17:04:19.599Z,20.58
2022-12-16T17:07:05.242Z,38.88
2022-12-16T17:09:50.458Z,51.20
2022-12-16T17:12:45.904Z,98.07
2022-12-16T17:15:50.076Z,41.28
2022-12-16T17:18:37.694Z,23.80
2022-12-16T17:21:26.692Z,17.30
2022-12-16T17:24:12.230Z,15.90
2022-12-16T17:27:02.052Z,12.43
2022-12-16T17:29:48.663Z,10.20
2022-12-16T17:32:33.901Z,9.50
2022-12-16T17:35:19.513Z,7.78
2022-12-16T17:38:04.973Z,12.60
2022-12-16T17:40:50.306Z,9.98
2022-12-16T17:43:36.767Z,7.05
2022-12-16T17:46:25.545Z,6.78
2022-12-16T17:49:14.864Z,6.43
2022-12-16T17:52:01.846Z,6.90
2022-12-16T17:55:08.407Z,5.75
2022-12-16T17:57:54.222Z,5.32
2022-12-16T18:00:39.628Z,5.38
2022-12-16T18:03:25.862Z,5.47
2022-12-16T18:06:16.214Z,4.10
2022-12-16T18:09:01.685Z,3.72
2022-12-16T18:11:47.013Z,6.18
2022-12-16T18:14:32.472Z,7.85
2022-12-16T18:17:18.072Z,8.68
2022-12-16T18:20:03.492Z,8.90
2022-12-16T18:22:51.080Z,7.18
2022-12-16T18:25:37.299Z,9.77
2022-12-16T18:28:23.176Z,10.25
2022-12-16T18:31:08.812Z,8.40
2022-12-16T18:33:54.242Z,8.82
2022-12-16T18:36:39.574Z,7.53
2022-12-16T18:39:25.356Z,5.28
2022-12-16T18:42:10.892Z,4.68
2022-12-16T18:45:00.836Z,4.63
2022-12-16T18:47:47.294Z,4.82
2022-12-16T18:50:37.967Z,4.10
2022-12-16T18:53:27.723Z,3.88
2022-12-16T18:56:24.996Z,4.90
2022-12-16T18:59:12.845Z,5.85
2022-12-16T19:01:59.240Z,3.60
2022-12-16T19:04:45.622Z,3.60
2022-12-16T19:07:33.819Z,4.20
2022-12-16T19:10:19.987Z,4.75
2022-12-16T19:13:05.420Z,5.68
2022-12-16T19:15:50.832Z,7.75
2022-12-16T19:18:36.600Z,8.02
2022-12-16T19:21:21.971Z,7.75
2022-12-16T19:24:08.232Z,7.65
2022-12-16T19:26:56.647Z,9.10
2022-12-16T19:29:42.394Z,12.18
2022-12-16T19:32:27.913Z,17.92
2022-12-16T19:35:13.422Z,20.02
2022-12-16T19:37:58.954Z,15.38
2022-12-16T19:40:44.181Z,14.25
2022-12-16T19:43:29.931Z,13.65
2022-12-16T19:46:15.902Z,12.48
2022-12-16T19:49:01.480Z,15.30
2022-12-16T19:51:46.907Z,17.15
2022-12-16T19:54:32.163Z,19.80
2022-12-16T19:57:17.349Z,14.27
2022-12-16T20:00:02.684Z,16.17
2022-12-16T20:02:48.182Z,16.92
2022-12-16T20:05:34.046Z,10.43
2022-12-16T20:08:19.365Z,11.20
2022-12-16T20:11:04.879Z,6.95
2022-12-16T20:13:50.375Z,7.20
2022-12-16T20:16:35.767Z,10.20
2022-12-16T20:19:21.468Z,12.13
2022-12-16T20:22:08.272Z,10.90
2022-12-16T20:24:57.424Z,13.73
2022-12-16T20:27:42.681Z,12.90
2022-12-16T20:30:29.044Z,7.00
2022-12-16T20:33:14.246Z,6.40
2022-12-16T20:35:59.672Z,8.05
2022-12-16T20:38:44.972Z,8.80
2022-12-16T20:41:30.389Z,7.30
2022-12-16T20:44:15.627Z,7.35
2022-12-16T20:47:01.726Z,7.03
2022-12-16T20:49:47.141Z,6.32
2022-12-16T20:52:32.439Z,5.32
2022-12-16T20:55:17.496Z,6.55
2022-12-16T20:58:02.744Z,4.88
2022-12-16T21:00:48.024Z,5.50
2022-12-16T21:03:39.605Z,3.67
2022-12-16T21:06:25.292Z,4.30
2022-12-16T21:09:10.454Z,2.97
2022-12-16T21:11:56.188Z,2.70
2022-12-16T21:15:01.474Z,2.70
2022-12-16T21:17:46.571Z,2.33
2022-12-16T21:20:32.589Z,2.63
2022-12-16T21:23:19.806Z,3.40
2022-12-16T21:26:05.072Z,3.08
2022-12-16T21:28:50.559Z,3.50
2022-12-16T21:31:37.356Z,2.55
2022-12-16T21:34:25.489Z,3.22
2022-12-16T21:37:11.094Z,3.95
2022-12-16T21:39:55.998Z,3.70
2022-12-16T21:42:44.033Z,2.85
2022-12-16T21:45:29.818Z,2.35
2022-12-16T21:48:15.027Z,2.65
2022-12-16T21:51:00.364Z,2.10
2022-12-16T21:53:45.944Z,2.63
2022-12-16T21:56:31.339Z,2.10
2022-12-16T21:59:16.782Z,2.20
2022-12-16T22:02:02.195Z,3.55
2022-12-16T22:04:47.507Z,2.90
2022-12-16T22:07:32.732Z,2.97
2022-12-16T22:10:17.757Z,2.78
2022-12-16T22:13:02.952Z,2.60
2022-12-16T22:15:48.220Z,2.25
2022-12-16T22:18:35.961Z,2.47
2022-12-16T22:21:24.242Z,2.00
2022-12-16T22:24:10.631Z,1.92
2022-12-16T22:26:56.634Z,2.22
2022-12-16T22:29:42.022Z,2.03
2022-12-16T22:32:27.646Z,2.50
2022-12-16T22:35:12.767Z,1.88
2022-12-16T22:37:58.258Z,2.15
2022-12-16T22:40:43.564Z,1.63
2022-12-16T22:43:28.874Z,1.40
2022-12-16T22:46:18.645Z,1.73
2022-12-16T22:49:08.056Z,1.73
2022-12-16T22:51:53.820Z,1.80
2022-12-16T22:54:39.417Z,1.70
2022-12-16T22:57:24.481Z,1.70
2022-12-16T23:00:09.729Z,1.60
2022-12-16T23:02:55.370Z,1.65
2022-12-16T23:05:42.127Z,1.70
2022-12-16T23:08:27.306Z,1.88
2022-12-16T23:11:17.554Z,1.70
2022-12-16T23:14:03.253Z,1.90
2022-12-16T23:16:48.660Z,2.00
2022-12-16T23:19:33.993Z,1.60
2022-12-16T23:22:19.273Z,1.90
2022-12-16T23:25:04.502Z,1.75
2022-12-16T23:27:49.849Z,1.77
2022-12-16T23:30:35.160Z,1.92
2022-12-16T23:33:21.539Z,1.60
2022-12-16T23:36:06.828Z,1.40
2022-12-16T23:38:52.097Z,1.30
2022-12-16T23:41:38.699Z,1.40
2022-12-16T23:44:23.859Z,1.40
2022-12-16T23:47:09.190Z,1.50
2022-12-16T23:49:56.459Z,1.20
2022-12-16T23:52:42.088Z,1.25
2022-12-16T23:55:27.776Z,1.27
2022-12-16T23:58:22.160Z,1.25
